ADDS METAR Data INFO
IDs: Format: Raw Decoded Include TAF

Data at: 2311 UTC 24 May 2018

METAR for:KHLX (Hillsville/Twin Cnty, VA, US)
Text:KHLX 242255Z AUTO 16004KT 10SM SCT050 22/16 A3021 RMK AO2 T02210160
Temperature: 22.1°C ( 72°F)
Dewpoint: 16.0°C ( 61°F) [RH = 68%]
Pressure (altimeter):30.21 inches Hg (1023.1 mb)
Winds:from the SSE (160 degrees) at 5 MPH (4 knots; 2.1 m/s)
Visibility:10 or more sm (16+ km)
Ceiling:at least 12,000 feet AGL
Clouds: scattered clouds at 5000 feet AGL
QC Flag:automated observation with no human augmentation